sensor_id;sensor_type;location;lat;lon;timestamp;temperature;humidity
14993;DHT22;7592;51.088;13.732;2023-04-15T00:02:18;8.90;99.90
14993;DHT22;7592;51.088;13.732;2023-04-15T00:07:11;8.80;99.90
14993;DHT22;7592;51.088;13.732;2023-04-15T00:12:04;8.80;99.90
14993;DHT22;7592;51.088;13.732;2023-04-15T00:16:56;8.80;99.90
14993;DHT22;7592;51.088;13.732;2023-04-15T00:21:49;8.70;99.90
14993;DHT22;7592;51.088;13.732;2023-04-15T00:26:41;8.70;99.90
14993;DHT22;7592;51.088;13.732;2023-04-15T00:31:33;8.70;99.90
14993;DHT22;7592;51.088;13.732;2023-04-15T00:36:25;8.70;99.90
14993;DHT22;7592;51.088;13.732;2023-04-15T00:41:18;8.70;99.90
14993;DHT22;7592;51.088;13.732;2023-04-15T00:46:12;8.70;99.90
14993;DHT22;7592;51.088;13.732;2023-04-15T00:51:05;8.80;99.90
14993;DHT22;7592;51.088;13.732;2023-04-15T00:55:58;8.70;99.90
14993;DHT22;7592;51.088;13.732;2023-04-15T01:00:50;8.70;99.90
14993;DHT22;7592;51.088;13.732;2023-04-15T01:11:52;8.80;99.90
14993;DHT22;7592;51.088;13.732;2023-04-15T01:16:45;8.70;99.90
14993;DHT22;7592;51.088;13.732;2023-04-15T01:21:38;8.80;99.90
14993;DHT22;7592;51.088;13.732;2023-04-15T01:26:30;8.70;99.90
14993;DHT22;7592;51.088;13.732;2023-04-15T01:31:23;8.70;99.90
14993;DHT22;7592;51.088;13.732;2023-04-15T01:36:15;8.70;99.90
14993;DHT22;7592;51.088;13.732;2023-04-15T01:41:07;8.70;99.90
14993;DHT22;7592;51.088;13.732;2023-04-15T01:46:00;8.80;99.90
14993;DHT22;7592;51.088;13.732;2023-04-15T01:50:53;8.80;99.90
14993;DHT22;7592;51.088;13.732;2023-04-15T01:55:45;8.80;99.90
14993;DHT22;7592;51.088;13.732;2023-04-15T02:00:38;8.80;99.90
14993;DHT22;7592;51.088;13.732;2023-04-15T02:05:30;8.70;99.90
14993;DHT22;7592;51.088;13.732;2023-04-15T02:10:22;8.70;99.90
14993;DHT22;7592;51.088;13.732;2023-04-15T02:15:15;8.80;99.90
14993;DHT22;7592;51.088;13.732;2023-04-15T02:20:07;8.70;99.90
14993;DHT22;7592;51.088;13.732;2023-04-15T02:25:00;8.80;99.90
14993;DHT22;7592;51.088;13.732;2023-04-15T02:29:55;8.70;99.90
14993;DHT22;7592;51.088;13.732;2023-04-15T02:34:47;8.70;99.90
14993;DHT22;7592;51.088;13.732;2023-04-15T02:39:39;8.70;99.90
14993;DHT22;7592;51.088;13.732;2023-04-15T02:44:32;8.80;99.90
14993;DHT22;7592;51.088;13.732;2023-04-15T02:49:27;8.80;99.90
14993;DHT22;7592;51.088;13.732;2023-04-15T02:54:22;8.80;99.90
14993;DHT22;7592;51.088;13.732;2023-04-15T02:59:15;8.80;99.90
14993;DHT22;7592;51.088;13.732;2023-04-15T03:04:08;8.80;99.90
14993;DHT22;7592;51.088;13.732;2023-04-15T03:09:00;8.70;99.90
14993;DHT22;7592;51.088;13.732;2023-04-15T03:13:58;8.80;99.90
14993;DHT22;7592;51.088;13.732;2023-04-15T03:18:55;8.80;99.90
14993;DHT22;7592;51.088;13.732;2023-04-15T03:23:48;8.80;99.90
14993;DHT22;7592;51.088;13.732;2023-04-15T03:28:41;8.80;99.90
14993;DHT22;7592;51.088;13.732;2023-04-15T03:33:33;8.80;99.90
14993;DHT22;7592;51.088;13.732;2023-04-15T03:38:25;8.70;99.90
14993;DHT22;7592;51.088;13.732;2023-04-15T03:43:17;8.80;99.90
14993;DHT22;7592;51.088;13.732;2023-04-15T03:48:09;8.80;99.90
14993;DHT22;7592;51.088;13.732;2023-04-15T03:53:09;8.80;99.90
14993;DHT22;7592;51.088;13.732;2023-04-15T03:58:01;8.80;99.90
14993;DHT22;7592;51.088;13.732;2023-04-15T04:02:53;8.80;99.90
14993;DHT22;7592;51.088;13.732;2023-04-15T04:07:45;8.80;99.90
14993;DHT22;7592;51.088;13.732;2023-04-15T04:12:38;8.80;99.90
14993;DHT22;7592;51.088;13.732;2023-04-15T04:17:30;8.80;99.90
14993;DHT22;7592;51.088;13.732;2023-04-15T04:22:22;8.70;99.90
14993;DHT22;7592;51.088;13.732;2023-04-15T04:27:15;8.80;99.90
14993;DHT22;7592;51.088;13.732;2023-04-15T04:32:07;8.80;99.90
14993;DHT22;7592;51.088;13.732;2023-04-15T04:36:59;8.80;99.90
14993;DHT22;7592;51.088;13.732;2023-04-15T04:41:52;8.80;99.90
14993;DHT22;7592;51.088;13.732;2023-04-15T04:46:44;8.80;99.90
14993;DHT22;7592;51.088;13.732;2023-04-15T04:51:36;8.90;99.90
14993;DHT22;7592;51.088;13.732;2023-04-15T04:56:28;8.90;99.90
14993;DHT22;7592;51.088;13.732;2023-04-15T05:01:20;8.90;99.90
14993;DHT22;7592;51.088;13.732;2023-04-15T05:06:12;8.90;99.90
14993;DHT22;7592;51.088;13.732;2023-04-15T05:11:04;9.00;99.90
14993;DHT22;7592;51.088;13.732;2023-04-15T05:15:56;9.00;99.90
14993;DHT22;7592;51.088;13.732;2023-04-15T05:20:49;9.00;99.90
14993;DHT22;7592;51.088;13.732;2023-04-15T05:25:41;9.10;99.90
14993;DHT22;7592;51.088;13.732;2023-04-15T05:30:33;9.10;99.90
14993;DHT22;7592;51.088;13.732;2023-04-15T05:35:26;9.10;99.90
14993;DHT22;7592;51.088;13.732;2023-04-15T05:40:18;9.10;99.90
14993;DHT22;7592;51.088;13.732;2023-04-15T05:45:11;9.10;99.90
14993;DHT22;7592;51.088;13.732;2023-04-15T05:50:03;9.20;99.90
14993;DHT22;7592;51.088;13.732;2023-04-15T05:54:57;9.20;99.90
14993;DHT22;7592;51.088;13.732;2023-04-15T05:59:49;9.20;99.90
14993;DHT22;7592;51.088;13.732;2023-04-15T06:04:43;9.20;99.90
14993;DHT22;7592;51.088;13.732;2023-04-15T06:09:35;9.20;99.90
14993;DHT22;7592;51.088;13.732;2023-04-15T06:14:27;9.30;99.90
14993;DHT22;7592;51.088;13.732;2023-04-15T06:19:19;9.30;99.90
14993;DHT22;7592;51.088;13.732;2023-04-15T06:24:12;9.30;99.90
14993;DHT22;7592;51.088;13.732;2023-04-15T06:29:04;9.30;99.90
14993;DHT22;7592;51.088;13.732;2023-04-15T06:33:56;9.30;99.90
14993;DHT22;7592;51.088;13.732;2023-04-15T06:38:48;9.40;99.90
14993;DHT22;7592;51.088;13.732;2023-04-15T06:43:40;9.50;99.90
14993;DHT22;7592;51.088;13.732;2023-04-15T06:48:32;9.60;99.90
14993;DHT22;7592;51.088;13.732;2023-04-15T06:53:25;9.70;99.90
14993;DHT22;7592;51.088;13.732;2023-04-15T06:58:20;9.80;99.90
14993;DHT22;7592;51.088;13.732;2023-04-15T07:03:12;9.80;99.90
14993;DHT22;7592;51.088;13.732;2023-04-15T07:08:06;9.80;99.90
14993;DHT22;7592;51.088;13.732;2023-04-15T07:12:58;9.80;99.90
14993;DHT22;7592;51.088;13.732;2023-04-15T07:17:50;9.90;99.90
14993;DHT22;7592;51.088;13.732;2023-04-15T07:22:42;10.20;99.90
14993;DHT22;7592;51.088;13.732;2023-04-15T07:27:35;10.20;99.90
14993;DHT22;7592;51.088;13.732;2023-04-15T07:32:27;10.30;99.90
14993;DHT22;7592;51.088;13.732;2023-04-15T07:37:19;10.40;99.90
14993;DHT22;7592;51.088;13.732;2023-04-15T07:42:11;10.40;99.90
14993;DHT22;7592;51.088;13.732;2023-04-15T07:47:03;10.30;99.90
14993;DHT22;7592;51.088;13.732;2023-04-15T07:51:55;10.20;99.90
14993;DHT22;7592;51.088;13.732;2023-04-15T07:56:48;10.30;99.90
14993;DHT22;7592;51.088;13.732;2023-04-15T08:01:40;10.50;99.90
14993;DHT22;7592;51.088;13.732;2023-04-15T08:06:33;10.70;99.90
14993;DHT22;7592;51.088;13.732;2023-04-15T08:11:26;10.90;99.90
14993;DHT22;7592;51.088;13.732;2023-04-15T08:16:25;11.30;99.90
14993;DHT22;7592;51.088;13.732;2023-04-15T08:21:19;11.80;99.90
14993;DHT22;7592;51.088;13.732;2023-04-15T08:26:11;11.80;99.90
14993;DHT22;7592;51.088;13.732;2023-04-15T08:31:06;11.80;99.90
14993;DHT22;7592;51.088;13.732;2023-04-15T08:35:58;11.80;99.90
14993;DHT22;7592;51.088;13.732;2023-04-15T08:40:51;12.00;99.90
14993;DHT22;7592;51.088;13.732;2023-04-15T08:45:43;12.30;99.90
14993;DHT22;7592;51.088;13.732;2023-04-15T08:50:37;12.70;99.90
14993;DHT22;7592;51.088;13.732;2023-04-15T08:55:32;12.90;99.90
14993;DHT22;7592;51.088;13.732;2023-04-15T09:00:27;12.60;99.90
14993;DHT22;7592;51.088;13.732;2023-04-15T09:05:20;12.40;99.90
14993;DHT22;7592;51.088;13.732;2023-04-15T09:10:12;12.20;99.90
14993;DHT22;7592;51.088;13.732;2023-04-15T09:15:04;11.80;99.90
14993;DHT22;7592;51.088;13.732;2023-04-15T09:20:09;11.20;99.90
14993;DHT22;7592;51.088;13.732;2023-04-15T09:25:03;10.80;99.90
14993;DHT22;7592;51.088;13.732;2023-04-15T09:29:55;10.80;99.90
14993;DHT22;7592;51.088;13.732;2023-04-15T09:34:47;10.70;99.90
14993;DHT22;7592;51.088;13.732;2023-04-15T09:39:51;10.70;99.90
14993;DHT22;7592;51.088;13.732;2023-04-15T09:44:43;10.50;99.90
14993;DHT22;7592;51.088;13.732;2023-04-15T09:49:35;10.30;99.90
14993;DHT22;7592;51.088;13.732;2023-04-15T09:54:33;10.00;99.90
14993;DHT22;7592;51.088;13.732;2023-04-15T09:59:25;9.80;99.90
14993;DHT22;7592;51.088;13.732;2023-04-15T10:04:17;9.90;99.90
14993;DHT22;7592;51.088;13.732;2023-04-15T10:09:09;10.20;99.90
14993;DHT22;7592;51.088;13.732;2023-04-15T10:14:01;10.40;99.90
14993;DHT22;7592;51.088;13.732;2023-04-15T10:18:56;10.30;99.90
14993;DHT22;7592;51.088;13.732;2023-04-15T10:23:49;10.20;99.90
14993;DHT22;7592;51.088;13.732;2023-04-15T10:28:43;10.40;99.90
14993;DHT22;7592;51.088;13.732;2023-04-15T10:33:35;10.60;99.90
14993;DHT22;7592;51.088;13.732;2023-04-15T10:38:39;10.50;99.90
14993;DHT22;7592;51.088;13.732;2023-04-15T10:43:36;10.50;99.90
14993;DHT22;7592;51.088;13.732;2023-04-15T10:48:29;10.50;99.90
14993;DHT22;7592;51.088;13.732;2023-04-15T10:53:28;10.50;99.90
14993;DHT22;7592;51.088;13.732;2023-04-15T10:58:24;10.90;99.90
14993;DHT22;7592;51.088;13.732;2023-04-15T11:03:16;11.00;99.90
14993;DHT22;7592;51.088;13.732;2023-04-15T11:08:09;11.30;99.90
14993;DHT22;7592;51.088;13.732;2023-04-15T11:18:24;11.30;99.90
14993;DHT22;7592;51.088;13.732;2023-04-15T11:23:18;11.20;99.90
14993;DHT22;7592;51.088;13.732;2023-04-15T11:28:11;11.30;99.90
14993;DHT22;7592;51.088;13.732;2023-04-15T11:33:05;11.70;99.90
14993;DHT22;7592;51.088;13.732;2023-04-15T11:37:57;11.80;99.90
14993;DHT22;7592;51.088;13.732;2023-04-15T11:43:16;11.90;99.90
14993;DHT22;7592;51.088;13.732;2023-04-15T11:48:12;12.30;99.90
14993;DHT22;7592;51.088;13.732;2023-04-15T11:53:05;12.10;99.90
14993;DHT22;7592;51.088;13.732;2023-04-15T11:58:07;12.00;99.90
14993;DHT22;7592;51.088;13.732;2023-04-15T12:03:20;11.90;99.90
14993;DHT22;7592;51.088;13.732;2023-04-15T12:08:13;11.70;99.90
14993;DHT22;7592;51.088;13.732;2023-04-15T12:13:08;11.90;99.90
14993;DHT22;7592;51.088;13.732;2023-04-15T12:18:00;11.90;99.90
14993;DHT22;7592;51.088;13.732;2023-04-15T12:23:05;11.80;99.90
14993;DHT22;7592;51.088;13.732;2023-04-15T12:27:57;12.00;99.90
14993;DHT22;7592;51.088;13.732;2023-04-15T12:32:51;12.30;99.90
14993;DHT22;7592;51.088;13.732;2023-04-15T12:37:43;12.70;99.90
14993;DHT22;7592;51.088;13.732;2023-04-15T12:42:35;12.80;99.90
14993;DHT22;7592;51.088;13.732;2023-04-15T12:47:27;12.60;99.90
14993;DHT22;7592;51.088;13.732;2023-04-15T12:52:19;12.20;99.90
14993;DHT22;7592;51.088;13.732;2023-04-15T12:57:11;12.10;99.90
14993;DHT22;7592;51.088;13.732;2023-04-15T13:02:03;12.20;99.90
14993;DHT22;7592;51.088;13.732;2023-04-15T13:06:56;12.50;99.90
14993;DHT22;7592;51.088;13.732;2023-04-15T13:11:48;12.40;99.90
14993;DHT22;7592;51.088;13.732;2023-04-15T13:16:40;12.40;99.90
14993;DHT22;7592;51.088;13.732;2023-04-15T13:21:32;12.50;99.90
14993;DHT22;7592;51.088;13.732;2023-04-15T13:26:27;12.60;99.90
14993;DHT22;7592;51.088;13.732;2023-04-15T13:31:19;12.70;99.90
14993;DHT22;7592;51.088;13.732;2023-04-15T13:36:11;12.60;99.90
14993;DHT22;7592;51.088;13.732;2023-04-15T13:41:03;13.00;99.90
14993;DHT22;7592;51.088;13.732;2023-04-15T13:45:55;13.40;99.90
14993;DHT22;7592;51.088;13.732;2023-04-15T13:50:47;13.80;99.90
14993;DHT22;7592;51.088;13.732;2023-04-15T13:55:39;14.40;99.90
14993;DHT22;7592;51.088;13.732;2023-04-15T14:00:33;14.90;99.90
14993;DHT22;7592;51.088;13.732;2023-04-15T14:05:25;14.90;99.90
14993;DHT22;7592;51.088;13.732;2023-04-15T14:10:17;14.50;99.90
14993;DHT22;7592;51.088;13.732;2023-04-15T14:15:09;14.50;99.90
14993;DHT22;7592;51.088;13.732;2023-04-15T14:20:02;14.70;99.90
14993;DHT22;7592;51.088;13.732;2023-04-15T14:24:55;15.20;99.90
14993;DHT22;7592;51.088;13.732;2023-04-15T14:29:47;15.30;99.90
14993;DHT22;7592;51.088;13.732;2023-04-15T14:34:39;15.10;99.90
14993;DHT22;7592;51.088;13.732;2023-04-15T14:39:31;15.00;99.90
14993;DHT22;7592;51.088;13.732;2023-04-15T14:44:24;15.00;99.90
14993;DHT22;7592;51.088;13.732;2023-04-15T14:49:16;14.90;99.90
14993;DHT22;7592;51.088;13.732;2023-04-15T14:54:09;15.00;99.90
14993;DHT22;7592;51.088;13.732;2023-04-15T14:59:01;15.10;99.90
14993;DHT22;7592;51.088;13.732;2023-04-15T15:03:54;15.30;99.90
14993;DHT22;7592;51.088;13.732;2023-04-15T15:08:46;15.30;99.90
14993;DHT22;7592;51.088;13.732;2023-04-15T15:13:38;15.30;99.90
14993;DHT22;7592;51.088;13.732;2023-04-15T15:18:30;15.10;99.90
14993;DHT22;7592;51.088;13.732;2023-04-15T15:23:22;15.20;99.90
14993;DHT22;7592;51.088;13.732;2023-04-15T15:28:14;15.30;99.90
14993;DHT22;7592;51.088;13.732;2023-04-15T15:33:06;15.30;99.90
14993;DHT22;7592;51.088;13.732;2023-04-15T15:37:59;15.10;99.90
14993;DHT22;7592;51.088;13.732;2023-04-15T15:42:52;15.00;99.90
14993;DHT22;7592;51.088;13.732;2023-04-15T15:47:44;14.90;99.90
14993;DHT22;7592;51.088;13.732;2023-04-15T15:52:36;14.50;99.90
14993;DHT22;7592;51.088;13.732;2023-04-15T15:57:28;14.30;99.90
14993;DHT22;7592;51.088;13.732;2023-04-15T16:02:20;14.10;99.90
14993;DHT22;7592;51.088;13.732;2023-04-15T16:07:32;14.00;99.90
14993;DHT22;7592;51.088;13.732;2023-04-15T16:12:25;13.70;99.90
14993;DHT22;7592;51.088;13.732;2023-04-15T16:17:17;13.60;99.90
14993;DHT22;7592;51.088;13.732;2023-04-15T16:22:09;13.60;99.90
14993;DHT22;7592;51.088;13.732;2023-04-15T16:27:01;13.60;99.90
14993;DHT22;7592;51.088;13.732;2023-04-15T16:31:55;13.60;99.90
14993;DHT22;7592;51.088;13.732;2023-04-15T16:36:47;13.60;99.90
14993;DHT22;7592;51.088;13.732;2023-04-15T16:41:39;13.40;99.90
14993;DHT22;7592;51.088;13.732;2023-04-15T16:46:33;13.20;99.90
14993;DHT22;7592;51.088;13.732;2023-04-15T16:51:26;13.10;99.90
14993;DHT22;7592;51.088;13.732;2023-04-15T16:56:18;13.00;99.90
14993;DHT22;7592;51.088;13.732;2023-04-15T17:01:10;12.90;99.90
14993;DHT22;7592;51.088;13.732;2023-04-15T17:06:03;12.70;99.90
14993;DHT22;7592;51.088;13.732;2023-04-15T17:10:56;12.60;99.90
14993;DHT22;7592;51.088;13.732;2023-04-15T17:15:49;12.50;99.90
14993;DHT22;7592;51.088;13.732;2023-04-15T17:20:43;12.40;99.90
14993;DHT22;7592;51.088;13.732;2023-04-15T17:25:35;12.20;99.90
14993;DHT22;7592;51.088;13.732;2023-04-15T17:30:27;12.00;99.90
14993;DHT22;7592;51.088;13.732;2023-04-15T17:35:19;11.90;99.90
14993;DHT22;7592;51.088;13.732;2023-04-15T17:40:11;11.80;99.90
14993;DHT22;7592;51.088;13.732;2023-04-15T17:45:04;11.60;99.90
14993;DHT22;7592;51.088;13.732;2023-04-15T17:49:57;11.50;99.90
14993;DHT22;7592;51.088;13.732;2023-04-15T17:54:49;11.40;99.90
14993;DHT22;7592;51.088;13.732;2023-04-15T17:59:42;11.30;99.90
14993;DHT22;7592;51.088;13.732;2023-04-15T18:04:35;11.20;99.90
14993;DHT22;7592;51.088;13.732;2023-04-15T18:09:28;11.10;99.90
14993;DHT22;7592;51.088;13.732;2023-04-15T18:14:20;11.00;99.90
14993;DHT22;7592;51.088;13.732;2023-04-15T18:19:25;11.00;99.90
14993;DHT22;7592;51.088;13.732;2023-04-15T18:24:17;10.90;99.90
14993;DHT22;7592;51.088;13.732;2023-04-15T18:29:09;10.80;99.90
14993;DHT22;7592;51.088;13.732;2023-04-15T18:34:01;10.80;99.90
14993;DHT22;7592;51.088;13.732;2023-04-15T18:38:57;10.70;99.90
14993;DHT22;7592;51.088;13.732;2023-04-15T18:43:50;10.60;99.90
14993;DHT22;7592;51.088;13.732;2023-04-15T18:48:42;10.50;99.90
14993;DHT22;7592;51.088;13.732;2023-04-15T18:53:34;10.40;99.90
14993;DHT22;7592;51.088;13.732;2023-04-15T18:58:26;10.30;99.90
14993;DHT22;7592;51.088;13.732;2023-04-15T19:03:38;10.20;99.90
14993;DHT22;7592;51.088;13.732;2023-04-15T19:08:30;10.10;99.90
14993;DHT22;7592;51.088;13.732;2023-04-15T19:13:22;10.00;99.90
14993;DHT22;7592;51.088;13.732;2023-04-15T19:18:17;10.00;99.90
14993;DHT22;7592;51.088;13.732;2023-04-15T19:23:09;9.90;99.90
14993;DHT22;7592;51.088;13.732;2023-04-15T19:28:01;9.90;99.90
14993;DHT22;7592;51.088;13.732;2023-04-15T19:32:54;9.80;99.90
14993;DHT22;7592;51.088;13.732;2023-04-15T19:37:46;9.70;99.90
14993;DHT22;7592;51.088;13.732;2023-04-15T19:42:38;9.60;99.90
14993;DHT22;7592;51.088;13.732;2023-04-15T19:47:32;9.60;99.90
14993;DHT22;7592;51.088;13.732;2023-04-15T19:52:24;9.50;99.90
14993;DHT22;7592;51.088;13.732;2023-04-15T19:57:17;9.50;99.90
14993;DHT22;7592;51.088;13.732;2023-04-15T20:02:09;9.40;99.90
14993;DHT22;7592;51.088;13.732;2023-04-15T20:07:01;9.40;99.90
14993;DHT22;7592;51.088;13.732;2023-04-15T20:11:53;9.30;99.90
14993;DHT22;7592;51.088;13.732;2023-04-15T20:17:05;9.20;99.90
14993;DHT22;7592;51.088;13.732;2023-04-15T20:21:58;9.10;99.90
14993;DHT22;7592;51.088;13.732;2023-04-15T20:26:50;9.00;99.90
14993;DHT22;7592;51.088;13.732;2023-04-15T20:31:42;8.90;99.90
14993;DHT22;7592;51.088;13.732;2023-04-15T20:36:34;8.80;99.90
14993;DHT22;7592;51.088;13.732;2023-04-15T20:41:26;8.80;99.90
14993;DHT22;7592;51.088;13.732;2023-04-15T20:46:19;8.70;99.90
14993;DHT22;7592;51.088;13.732;2023-04-15T20:51:12;8.70;99.90
14993;DHT22;7592;51.088;13.732;2023-04-15T20:56:04;8.70;99.90
14993;DHT22;7592;51.088;13.732;2023-04-15T21:00:57;8.80;99.90
14993;DHT22;7592;51.088;13.732;2023-04-15T21:05:49;8.80;99.90
14993;DHT22;7592;51.088;13.732;2023-04-15T21:10:42;8.80;99.90
14993;DHT22;7592;51.088;13.732;2023-04-15T21:15:34;8.80;99.90
14993;DHT22;7592;51.088;13.732;2023-04-15T21:20:26;8.90;99.90
14993;DHT22;7592;51.088;13.732;2023-04-15T21:25:18;8.90;99.90
14993;DHT22;7592;51.088;13.732;2023-04-15T21:30:11;8.80;99.90
14993;DHT22;7592;51.088;13.732;2023-04-15T21:35:05;8.70;99.90
14993;DHT22;7592;51.088;13.732;2023-04-15T21:39:59;8.70;99.90
14993;DHT22;7592;51.088;13.732;2023-04-15T21:44:51;8.70;99.90
14993;DHT22;7592;51.088;13.732;2023-04-15T21:49:43;8.80;99.90
14993;DHT22;7592;51.088;13.732;2023-04-15T21:54:35;8.70;99.90
14993;DHT22;7592;51.088;13.732;2023-04-15T21:59:28;8.70;99.90
14993;DHT22;7592;51.088;13.732;2023-04-15T22:04:20;8.70;99.90
14993;DHT22;7592;51.088;13.732;2023-04-15T22:09:13;8.70;99.90
14993;DHT22;7592;51.088;13.732;2023-04-15T22:14:05;8.70;99.90
14993;DHT22;7592;51.088;13.732;2023-04-15T22:18:57;8.70;99.90
14993;DHT22;7592;51.088;13.732;2023-04-15T22:23:50;8.70;99.90
14993;DHT22;7592;51.088;13.732;2023-04-15T22:28:42;8.70;99.90
14993;DHT22;7592;51.088;13.732;2023-04-15T22:33:34;8.70;99.90
14993;DHT22;7592;51.088;13.732;2023-04-15T22:38:26;8.60;99.90
14993;DHT22;7592;51.088;13.732;2023-04-15T22:43:19;8.70;99.90
14993;DHT22;7592;51.088;13.732;2023-04-15T22:48:11;8.70;99.90
14993;DHT22;7592;51.088;13.732;2023-04-15T22:53:03;8.70;99.90
14993;DHT22;7592;51.088;13.732;2023-04-15T22:57:55;8.80;99.90
14993;DHT22;7592;51.088;13.732;2023-04-15T23:02:47;8.70;99.90
14993;DHT22;7592;51.088;13.732;2023-04-15T23:07:40;8.70;99.90
14993;DHT22;7592;51.088;13.732;2023-04-15T23:12:32;8.60;99.90
14993;DHT22;7592;51.088;13.732;2023-04-15T23:17:24;8.60;99.90
14993;DHT22;7592;51.088;13.732;2023-04-15T23:22:17;8.50;99.90
14993;DHT22;7592;51.088;13.732;2023-04-15T23:27:10;8.40;99.90
14993;DHT22;7592;51.088;13.732;2023-04-15T23:32:02;8.40;99.90
14993;DHT22;7592;51.088;13.732;2023-04-15T23:36:54;8.30;99.90
14993;DHT22;7592;51.088;13.732;2023-04-15T23:41:46;8.30;99.90
14993;DHT22;7592;51.088;13.732;2023-04-15T23:46:38;8.10;99.90
14993;DHT22;7592;51.088;13.732;2023-04-15T23:51:34;8.10;99.90
14993;DHT22;7592;51.088;13.732;2023-04-15T23:56:26;8.00;99.90
